sensor_id;sensor_type;location;lat;lon;timestamp;pressure;altitude;pressure_sealevel;temperature;humidity
3142;BME280;1581;51.568;6.998;2023-08-07T00:00:07;100358.09;;;15.97;100.00
3142;BME280;1581;51.568;6.998;2023-08-07T00:02:35;100359.38;;;15.95;100.00
3142;BME280;1581;51.568;6.998;2023-08-07T00:05:04;100368.59;;;15.99;100.00
3142;BME280;1581;51.568;6.998;2023-08-07T00:07:32;100364.16;;;15.93;100.00
3142;BME280;1581;51.568;6.998;2023-08-07T00:10:01;100364.41;;;15.91;100.00
3142;BME280;1581;51.568;6.998;2023-08-07T00:12:29;100369.63;;;15.86;100.00
3142;BME280;1581;51.568;6.998;2023-08-07T00:14:57;100359.94;;;15.85;100.00
3142;BME280;1581;51.568;6.998;2023-08-07T00:17:25;100366.50;;;15.89;100.00
3142;BME280;1581;51.568;6.998;2023-08-07T00:19:53;100375.50;;;15.95;100.00
3142;BME280;1581;51.568;6.998;2023-08-07T00:22:20;100371.03;;;15.89;100.00
3142;BME280;1581;51.568;6.998;2023-08-07T00:24:48;100374.81;;;15.99;100.00
3142;BME280;1581;51.568;6.998;2023-08-07T00:27:17;100376.91;;;16.09;100.00
3142;BME280;1581;51.568;6.998;2023-08-07T00:29:45;100379.47;;;16.04;100.00
3142;BME280;1581;51.568;6.998;2023-08-07T00:32:13;100385.31;;;16.01;100.00
3142;BME280;1581;51.568;6.998;2023-08-07T00:34:40;100386.38;;;16.11;100.00
3142;BME280;1581;51.568;6.998;2023-08-07T00:37:08;100384.84;;;16.04;100.00
3142;BME280;1581;51.568;6.998;2023-08-07T00:39:36;100388.69;;;15.85;100.00
3142;BME280;1581;51.568;6.998;2023-08-07T00:42:04;100382.25;;;15.97;100.00
3142;BME280;1581;51.568;6.998;2023-08-07T00:44:33;100392.22;;;15.97;100.00
3142;BME280;1581;51.568;6.998;2023-08-07T00:47:00;100398.16;;;15.99;100.00
3142;BME280;1581;51.568;6.998;2023-08-07T00:49:28;100393.13;;;16.02;100.00
3142;BME280;1581;51.568;6.998;2023-08-07T00:51:56;100395.47;;;15.99;100.00
3142;BME280;1581;51.568;6.998;2023-08-07T00:54:24;100392.47;;;16.07;100.00
3142;BME280;1581;51.568;6.998;2023-08-07T00:56:52;100400.97;;;16.04;100.00
3142;BME280;1581;51.568;6.998;2023-08-07T00:59:20;100405.88;;;15.95;100.00
3142;BME280;1581;51.568;6.998;2023-08-07T01:01:50;100402.00;;;15.91;100.00
3142;BME280;1581;51.568;6.998;2023-08-07T01:04:18;100405.75;;;15.90;100.00
3142;BME280;1581;51.568;6.998;2023-08-07T01:06:44;100402.13;;;15.85;100.00
3142;BME280;1581;51.568;6.998;2023-08-07T01:09:12;100409.84;;;15.93;100.00
3142;BME280;1581;51.568;6.998;2023-08-07T01:11:45;100406.56;;;16.02;100.00
3142;BME280;1581;51.568;6.998;2023-08-07T01:14:36;100409.00;;;15.92;100.00
3142;BME280;1581;51.568;6.998;2023-08-07T01:17:11;100402.13;;;15.85;100.00
3142;BME280;1581;51.568;6.998;2023-08-07T01:19:42;100409.13;;;15.86;100.00
3142;BME280;1581;51.568;6.998;2023-08-07T01:22:12;100412.88;;;15.85;100.00
3142;BME280;1581;51.568;6.998;2023-08-07T01:24:42;100403.38;;;15.82;100.00
3142;BME280;1581;51.568;6.998;2023-08-07T01:27:27;100419.63;;;15.87;100.00
3142;BME280;1581;51.568;6.998;2023-08-07T01:30:03;100409.59;;;15.83;100.00
3142;BME280;1581;51.568;6.998;2023-08-07T01:32:47;100409.00;;;15.92;100.00
3142;BME280;1581;51.568;6.998;2023-08-07T01:35:17;100413.31;;;15.93;100.00
3142;BME280;1581;51.568;6.998;2023-08-07T01:37:49;100413.66;;;15.85;100.00
3142;BME280;1581;51.568;6.998;2023-08-07T01:40:18;100412.50;;;15.81;100.00
3142;BME280;1581;51.568;6.998;2023-08-07T01:42:47;100413.75;;;15.79;100.00
3142;BME280;1581;51.568;6.998;2023-08-07T01:45:23;100413.56;;;15.80;100.00
3142;BME280;1581;51.568;6.998;2023-08-07T01:47:51;100412.63;;;15.86;100.00
3142;BME280;1581;51.568;6.998;2023-08-07T01:50:20;100417.41;;;15.84;100.00
3142;BME280;1581;51.568;6.998;2023-08-07T01:52:50;100413.94;;;15.95;100.00
3142;BME280;1581;51.568;6.998;2023-08-07T01:55:20;100406.06;;;15.82;100.00
3142;BME280;1581;51.568;6.998;2023-08-07T01:57:47;100419.72;;;15.81;100.00
3142;BME280;1581;51.568;6.998;2023-08-07T02:00:15;100417.06;;;15.81;100.00
3142;BME280;1581;51.568;6.998;2023-08-07T02:02:43;100426.41;;;15.90;100.00
3142;BME280;1581;51.568;6.998;2023-08-07T02:05:13;100424.88;;;15.82;100.00
3142;BME280;1581;51.568;6.998;2023-08-07T02:07:41;100429.09;;;15.78;100.00
3142;BME280;1581;51.568;6.998;2023-08-07T02:10:10;100424.75;;;15.77;100.00
3142;BME280;1581;51.568;6.998;2023-08-07T02:12:38;100430.13;;;15.77;100.00
3142;BME280;1581;51.568;6.998;2023-08-07T02:15:07;100426.41;;;15.78;100.00
3142;BME280;1581;51.568;6.998;2023-08-07T02:17:37;100428.81;;;15.68;100.00
3142;BME280;1581;51.568;6.998;2023-08-07T02:20:10;100432.91;;;15.71;100.00
3142;BME280;1581;51.568;6.998;2023-08-07T02:22:40;100435.94;;;15.74;100.00
3142;BME280;1581;51.568;6.998;2023-08-07T02:25:11;100427.44;;;15.77;100.00
3142;BME280;1581;51.568;6.998;2023-08-07T02:27:38;100435.59;;;15.71;100.00
3142;BME280;1581;51.568;6.998;2023-08-07T02:30:07;100426.13;;;15.68;100.00
3142;BME280;1581;51.568;6.998;2023-08-07T02:32:35;100428.22;;;15.66;100.00
3142;BME280;1581;51.568;6.998;2023-08-07T02:35:03;100437.00;;;15.73;100.00
3142;BME280;1581;51.568;6.998;2023-08-07T02:37:31;100428.94;;;15.73;100.00
3142;BME280;1581;51.568;6.998;2023-08-07T02:39:59;100441.91;;;15.76;100.00
3142;BME280;1581;51.568;6.998;2023-08-07T02:42:28;100443.56;;;15.77;100.00
3142;BME280;1581;51.568;6.998;2023-08-07T02:44:56;100445.53;;;15.70;100.00
3142;BME280;1581;51.568;6.998;2023-08-07T02:47:23;100437.94;;;15.79;100.00
3142;BME280;1581;51.568;6.998;2023-08-07T02:49:51;100448.69;;;15.79;100.00
3142;BME280;1581;51.568;6.998;2023-08-07T02:52:18;100442.00;;;15.70;100.00
3142;BME280;1581;51.568;6.998;2023-08-07T02:54:46;100447.72;;;15.62;100.00
3142;BME280;1581;51.568;6.998;2023-08-07T02:57:14;100451.13;;;15.69;100.00
3142;BME280;1581;51.568;6.998;2023-08-07T02:59:43;100448.94;;;15.77;100.00
3142;BME280;1581;51.568;6.998;2023-08-07T03:02:11;100453.03;;;15.80;100.00
3142;BME280;1581;51.568;6.998;2023-08-07T03:04:38;100446.25;;;15.77;100.00
3142;BME280;1581;51.568;6.998;2023-08-07T03:07:06;100463.41;;;15.76;100.00
3142;BME280;1581;51.568;6.998;2023-08-07T03:09:34;100454.16;;;15.72;100.00
3142;BME280;1581;51.568;6.998;2023-08-07T03:12:01;100455.78;;;15.62;100.00
3142;BME280;1581;51.568;6.998;2023-08-07T03:14:30;100458.09;;;15.58;100.00
3142;BME280;1581;51.568;6.998;2023-08-07T03:17:00;100458.44;;;15.62;100.00
3142;BME280;1581;51.568;6.998;2023-08-07T03:19:27;100459.06;;;15.64;100.00
3142;BME280;1581;51.568;6.998;2023-08-07T03:21:55;100454.81;;;15.56;100.00
3142;BME280;1581;51.568;6.998;2023-08-07T03:24:23;100450.75;;;15.65;100.00
3142;BME280;1581;51.568;6.998;2023-08-07T03:26:50;100451.78;;;15.64;100.00
3142;BME280;1581;51.568;6.998;2023-08-07T03:29:18;100457.78;;;15.66;100.00
3142;BME280;1581;51.568;6.998;2023-08-07T03:31:46;100451.72;;;15.71;100.00
3142;BME280;1581;51.568;6.998;2023-08-07T03:34:15;100459.16;;;15.69;100.00
3142;BME280;1581;51.568;6.998;2023-08-07T03:36:43;100460.13;;;15.74;100.00
3142;BME280;1581;51.568;6.998;2023-08-07T03:39:10;100456.41;;;15.75;100.00
3142;BME280;1581;51.568;6.998;2023-08-07T03:41:39;100456.47;;;15.69;100.00
3142;BME280;1581;51.568;6.998;2023-08-07T03:44:07;100454.84;;;15.68;100.00
3142;BME280;1581;51.568;6.998;2023-08-07T03:46:34;100456.97;;;15.66;100.00
3142;BME280;1581;51.568;6.998;2023-08-07T03:49:02;100468.41;;;15.61;100.00
3142;BME280;1581;51.568;6.998;2023-08-07T03:51:31;100463.09;;;15.55;100.00
3142;BME280;1581;51.568;6.998;2023-08-07T03:53:59;100466.16;;;15.58;100.00
3142;BME280;1581;51.568;6.998;2023-08-07T03:56:27;100468.69;;;15.53;100.00
3142;BME280;1581;51.568;6.998;2023-08-07T03:58:54;100467.78;;;15.59;100.00
3142;BME280;1581;51.568;6.998;2023-08-07T04:01:22;100467.91;;;15.64;100.00
3142;BME280;1581;51.568;6.998;2023-08-07T04:03:50;100461.13;;;15.62;100.00
3142;BME280;1581;51.568;6.998;2023-08-07T04:06:17;100457.38;;;15.52;100.00
3142;BME280;1581;51.568;6.998;2023-08-07T04:08:48;100457.22;;;15.47;100.00
3142;BME280;1581;51.568;6.998;2023-08-07T04:11:16;100457.72;;;15.55;100.00
3142;BME280;1581;51.568;6.998;2023-08-07T04:13:44;100454.00;;;15.56;100.00
3142;BME280;1581;51.568;6.998;2023-08-07T04:16:11;100459.81;;;15.53;100.00
3142;BME280;1581;51.568;6.998;2023-08-07T04:18:39;100462.59;;;15.47;100.00
3142;BME280;1581;51.568;6.998;2023-08-07T04:21:07;100461.91;;;15.51;100.00
3142;BME280;1581;51.568;6.998;2023-08-07T04:23:35;100449.53;;;15.50;100.00
3142;BME280;1581;51.568;6.998;2023-08-07T04:26:04;100452.81;;;15.52;100.00
3142;BME280;1581;51.568;6.998;2023-08-07T04:28:31;100462.88;;;15.56;100.00
3142;BME280;1581;51.568;6.998;2023-08-07T04:30:59;100462.75;;;15.52;100.00
3142;BME280;1581;51.568;6.998;2023-08-07T04:33:28;100470.53;;;15.42;100.00
3142;BME280;1581;51.568;6.998;2023-08-07T04:35:56;100461.38;;;15.43;100.00
3142;BME280;1581;51.568;6.998;2023-08-07T04:38:23;100452.97;;;15.39;100.00
3142;BME280;1581;51.568;6.998;2023-08-07T04:40:51;100466.75;;;15.43;100.00
3142;BME280;1581;51.568;6.998;2023-08-07T04:43:21;100464.03;;;15.31;100.00
3142;BME280;1581;51.568;6.998;2023-08-07T04:45:49;100459.19;;;15.40;100.00
3142;BME280;1581;51.568;6.998;2023-08-07T04:48:16;100465.97;;;15.42;100.00
3142;BME280;1581;51.568;6.998;2023-08-07T04:50:46;100459.31;;;15.45;100.00
3142;BME280;1581;51.568;6.998;2023-08-07T04:53:14;100461.31;;;15.49;100.00
3142;BME280;1581;51.568;6.998;2023-08-07T04:55:43;100462.22;;;15.43;100.00
3142;BME280;1581;51.568;6.998;2023-08-07T04:58:13;100459.78;;;15.42;100.00
3142;BME280;1581;51.568;6.998;2023-08-07T05:00:42;100457.38;;;15.34;100.00
3142;BME280;1581;51.568;6.998;2023-08-07T05:03:09;100468.28;;;15.39;100.00
3142;BME280;1581;51.568;6.998;2023-08-07T05:05:37;100461.41;;;15.25;100.00
3142;BME280;1581;51.568;6.998;2023-08-07T05:08:05;100462.19;;;15.32;100.00
3142;BME280;1581;51.568;6.998;2023-08-07T05:10:32;100470.59;;;15.35;100.00
3142;BME280;1581;51.568;6.998;2023-08-07T05:13:00;100462.91;;;15.39;100.00
3142;BME280;1581;51.568;6.998;2023-08-07T05:15:27;100460.22;;;15.39;100.00
3142;BME280;1581;51.568;6.998;2023-08-07T05:17:58;100460.66;;;15.36;100.00
3142;BME280;1581;51.568;6.998;2023-08-07T05:20:26;100449.19;;;15.29;100.00
3142;BME280;1581;51.568;6.998;2023-08-07T05:22:53;100471.78;;;15.39;100.00
3142;BME280;1581;51.568;6.998;2023-08-07T05:25:22;100466.63;;;15.38;100.00
3142;BME280;1581;51.568;6.998;2023-08-07T05:27:49;100470.19;;;15.50;100.00
3142;BME280;1581;51.568;6.998;2023-08-07T05:30:17;100471.09;;;15.44;100.00
3142;BME280;1581;51.568;6.998;2023-08-07T05:32:45;100469.00;;;15.46;100.00
3142;BME280;1581;51.568;6.998;2023-08-07T05:35:14;100476.63;;;15.49;100.00
3142;BME280;1581;51.568;6.998;2023-08-07T05:37:42;100477.66;;;15.48;100.00
3142;BME280;1581;51.568;6.998;2023-08-07T05:40:10;100483.16;;;15.52;100.00
3142;BME280;1581;51.568;6.998;2023-08-07T05:42:39;100480.25;;;15.54;100.00
3142;BME280;1581;51.568;6.998;2023-08-07T05:45:08;100477.56;;;15.54;100.00
3142;BME280;1581;51.568;6.998;2023-08-07T05:47:36;100494.00;;;15.46;100.00
3142;BME280;1581;51.568;6.998;2023-08-07T05:50:06;100489.53;;;15.40;100.00
3142;BME280;1581;51.568;6.998;2023-08-07T05:52:35;100492.56;;;15.44;100.00
3142;BME280;1581;51.568;6.998;2023-08-07T05:55:04;100488.63;;;15.46;100.00
3142;BME280;1581;51.568;6.998;2023-08-07T05:57:32;100497.44;;;15.35;100.00
3142;BME280;1581;51.568;6.998;2023-08-07T05:59:59;100501.66;;;15.43;100.00
3142;BME280;1581;51.568;6.998;2023-08-07T06:02:27;100500.88;;;15.42;100.00
3142;BME280;1581;51.568;6.998;2023-08-07T06:04:55;100492.56;;;15.44;100.00
3142;BME280;1581;51.568;6.998;2023-08-07T06:07:23;100504.50;;;15.48;100.00
3142;BME280;1581;51.568;6.998;2023-08-07T06:09:52;100516.34;;;15.58;100.00
3142;BME280;1581;51.568;6.998;2023-08-07T06:12:19;100515.78;;;15.56;100.00
3142;BME280;1581;51.568;6.998;2023-08-07T06:14:47;100512.69;;;15.52;100.00
3142;BME280;1581;51.568;6.998;2023-08-07T06:17:15;100516.16;;;15.59;100.00
3142;BME280;1581;51.568;6.998;2023-08-07T06:19:42;100514.53;;;15.70;100.00
3142;BME280;1581;51.568;6.998;2023-08-07T06:22:10;100517.47;;;15.68;100.00
3142;BME280;1581;51.568;6.998;2023-08-07T06:24:38;100521.88;;;15.63;100.00
3142;BME280;1581;51.568;6.998;2023-08-07T06:27:07;100526.81;;;15.66;100.00
3142;BME280;1581;51.568;6.998;2023-08-07T06:29:35;100531.41;;;15.77;100.00
3142;BME280;1581;51.568;6.998;2023-08-07T06:32:03;100528.34;;;15.73;100.00
3142;BME280;1581;51.568;6.998;2023-08-07T06:34:31;100532.91;;;15.73;100.00
3142;BME280;1581;51.568;6.998;2023-08-07T06:36:58;100529.28;;;15.79;100.00
3142;BME280;1581;51.568;6.998;2023-08-07T06:39:26;100530.50;;;15.83;100.00
3142;BME280;1581;51.568;6.998;2023-08-07T06:41:54;100541.38;;;15.88;100.00
3142;BME280;1581;51.568;6.998;2023-08-07T06:44:23;100547.06;;;15.80;100.00
3142;BME280;1581;51.568;6.998;2023-08-07T06:46:51;100547.53;;;15.77;100.00
3142;BME280;1581;51.568;6.998;2023-08-07T06:49:18;100549.31;;;15.83;100.00
3142;BME280;1581;51.568;6.998;2023-08-07T06:51:46;100552.81;;;15.83;100.00
3142;BME280;1581;51.568;6.998;2023-08-07T06:54:13;100553.56;;;15.72;100.00
3142;BME280;1581;51.568;6.998;2023-08-07T06:56:41;100555.03;;;15.86;100.00
3142;BME280;1581;51.568;6.998;2023-08-07T06:59:10;100559.50;;;15.92;100.00
3142;BME280;1581;51.568;6.998;2023-08-07T07:01:39;100559.59;;;15.86;100.00
3142;BME280;1581;51.568;6.998;2023-08-07T07:04:06;100554.44;;;15.84;100.00
3142;BME280;1581;51.568;6.998;2023-08-07T07:06:34;100554.59;;;15.89;100.00
3142;BME280;1581;51.568;6.998;2023-08-07T07:09:02;100554.53;;;15.78;100.00
3142;BME280;1581;51.568;6.998;2023-08-07T07:11:29;100561.91;;;15.82;100.00
3142;BME280;1581;51.568;6.998;2023-08-07T07:13:57;100566.03;;;15.85;100.00
3142;BME280;1581;51.568;6.998;2023-08-07T07:16:25;100565.78;;;15.86;100.00
3142;BME280;1581;51.568;6.998;2023-08-07T07:18:54;100574.09;;;15.85;100.00
3142;BME280;1581;51.568;6.998;2023-08-07T07:21:24;100572.53;;;15.77;100.00
3142;BME280;1581;51.568;6.998;2023-08-07T07:23:52;100579.38;;;15.91;100.00
3142;BME280;1581;51.568;6.998;2023-08-07T07:26:19;100580.34;;;15.97;100.00
3142;BME280;1581;51.568;6.998;2023-08-07T07:28:47;100594.16;;;16.00;100.00
3142;BME280;1581;51.568;6.998;2023-08-07T07:31:17;100593.00;;;16.08;100.00
3142;BME280;1581;51.568;6.998;2023-08-07T07:33:45;100598.63;;;16.18;100.00
3142;BME280;1581;51.568;6.998;2023-08-07T07:36:18;100610.06;;;16.13;100.00
3142;BME280;1581;51.568;6.998;2023-08-07T07:38:47;100605.53;;;16.14;100.00
3142;BME280;1581;51.568;6.998;2023-08-07T07:41:14;100607.72;;;16.05;100.00
3142;BME280;1581;51.568;6.998;2023-08-07T07:43:42;100617.56;;;16.11;100.00
3142;BME280;1581;51.568;6.998;2023-08-07T07:46:10;100622.03;;;16.17;100.00
3142;BME280;1581;51.568;6.998;2023-08-07T07:48:38;100615.53;;;16.25;100.00
3142;BME280;1581;51.568;6.998;2023-08-07T07:51:06;100617.97;;;16.26;100.00
3142;BME280;1581;51.568;6.998;2023-08-07T07:53:35;100619.91;;;16.37;100.00
3142;BME280;1581;51.568;6.998;2023-08-07T07:56:03;100624.69;;;16.35;100.00
3142;BME280;1581;51.568;6.998;2023-08-07T07:58:31;100635.59;;;16.40;100.00
3142;BME280;1581;51.568;6.998;2023-08-07T08:00:59;100630.53;;;16.32;100.00
3142;BME280;1581;51.568;6.998;2023-08-07T08:03:27;100635.34;;;16.30;100.00
3142;BME280;1581;51.568;6.998;2023-08-07T08:05:55;100641.44;;;16.37;100.00
3142;BME280;1581;51.568;6.998;2023-08-07T08:08:24;100646.13;;;16.41;100.00
3142;BME280;1581;51.568;6.998;2023-08-07T08:10:53;100658.91;;;16.28;100.00
3142;BME280;1581;51.568;6.998;2023-08-07T08:13:21;100666.25;;;16.39;100.00
3142;BME280;1581;51.568;6.998;2023-08-07T08:15:51;100667.56;;;16.48;100.00
3142;BME280;1581;51.568;6.998;2023-08-07T08:18:19;100668.44;;;16.42;100.00
3142;BME280;1581;51.568;6.998;2023-08-07T08:20:47;100668.72;;;16.52;100.00
3142;BME280;1581;51.568;6.998;2023-08-07T08:23:15;100681.41;;;16.63;100.00
3142;BME280;1581;51.568;6.998;2023-08-07T08:25:42;100695.94;;;16.62;100.00
3142;BME280;1581;51.568;6.998;2023-08-07T08:28:11;100693.81;;;16.64;100.00
3142;BME280;1581;51.568;6.998;2023-08-07T08:30:39;100706.47;;;16.75;100.00
3142;BME280;1581;51.568;6.998;2023-08-07T08:33:10;100700.69;;;16.89;100.00
3142;BME280;1581;51.568;6.998;2023-08-07T08:35:40;100708.66;;;16.96;100.00
3142;BME280;1581;51.568;6.998;2023-08-07T08:38:09;100703.78;;;17.04;100.00
3142;BME280;1581;51.568;6.998;2023-08-07T08:40:39;100712.56;;;17.23;100.00
3142;BME280;1581;51.568;6.998;2023-08-07T08:43:07;100710.63;;;17.52;100.00
3142;BME280;1581;51.568;6.998;2023-08-07T08:45:41;100710.16;;;17.55;100.00
3142;BME280;1581;51.568;6.998;2023-08-07T08:48:13;100712.41;;;17.58;100.00
3142;BME280;1581;51.568;6.998;2023-08-07T08:50:49;100707.81;;;17.82;100.00
3142;BME280;1581;51.568;6.998;2023-08-07T08:53:18;100715.06;;;18.04;100.00
3142;BME280;1581;51.568;6.998;2023-08-07T08:55:49;100715.97;;;18.21;100.00
3142;BME280;1581;51.568;6.998;2023-08-07T08:58:18;100714.84;;;18.06;100.00
3142;BME280;1581;51.568;6.998;2023-08-07T09:00:49;100715.19;;;17.98;100.00
3142;BME280;1581;51.568;6.998;2023-08-07T09:03:18;100728.03;;;18.18;100.00
3142;BME280;1581;51.568;6.998;2023-08-07T09:05:46;100724.66;;;18.23;100.00
3142;BME280;1581;51.568;6.998;2023-08-07T09:08:15;100713.16;;;18.16;100.00
3142;BME280;1581;51.568;6.998;2023-08-07T09:10:43;100716.97;;;18.43;100.00
3142;BME280;1581;51.568;6.998;2023-08-07T09:13:14;100724.31;;;18.59;100.00
3142;BME280;1581;51.568;6.998;2023-08-07T09:15:48;100716.13;;;18.54;100.00
3142;BME280;1581;51.568;6.998;2023-08-07T09:18:18;100729.19;;;18.45;100.00
3142;BME280;1581;51.568;6.998;2023-08-07T09:20:46;100731.72;;;18.52;100.00
3142;BME280;1581;51.568;6.998;2023-08-07T09:23:16;100735.50;;;18.51;100.00
3142;BME280;1581;51.568;6.998;2023-08-07T09:25:45;100735.19;;;18.36;100.00
3142;BME280;1581;51.568;6.998;2023-08-07T09:28:14;100746.00;;;18.64;100.00
3142;BME280;1581;51.568;6.998;2023-08-07T09:30:42;100760.72;;;18.84;100.00
3142;BME280;1581;51.568;6.998;2023-08-07T09:33:12;100745.31;;;18.85;100.00
3142;BME280;1581;51.568;6.998;2023-08-07T09:35:40;100747.75;;;18.70;100.00
3142;BME280;1581;51.568;6.998;2023-08-07T09:38:11;100757.00;;;18.74;100.00
3142;BME280;1581;51.568;6.998;2023-08-07T09:40:43;100753.63;;;18.67;100.00
3142;BME280;1581;51.568;6.998;2023-08-07T09:43:10;100765.59;;;18.31;100.00
3142;BME280;1581;51.568;6.998;2023-08-07T09:45:48;100755.25;;;18.17;100.00
3142;BME280;1581;51.568;6.998;2023-08-07T09:48:24;100777.31;;;17.80;100.00
3142;BME280;1581;51.568;6.998;2023-08-07T09:50:54;100774.97;;;17.60;100.00
3142;BME280;1581;51.568;6.998;2023-08-07T09:53:26;100780.94;;;17.62;100.00
3142;BME280;1581;51.568;6.998;2023-08-07T09:55:55;100781.66;;;17.69;100.00
3142;BME280;1581;51.568;6.998;2023-08-07T09:58:23;100776.84;;;17.94;100.00
3142;BME280;1581;51.568;6.998;2023-08-07T10:00:53;100786.25;;;17.80;100.00
3142;BME280;1581;51.568;6.998;2023-08-07T10:03:23;100776.63;;;17.84;100.00
3142;BME280;1581;51.568;6.998;2023-08-07T10:05:51;100781.66;;;17.81;100.00
3142;BME280;1581;51.568;6.998;2023-08-07T10:08:19;100779.09;;;17.86;100.00
3142;BME280;1581;51.568;6.998;2023-08-07T10:10:48;100782.38;;;17.76;100.00
3142;BME280;1581;51.568;6.998;2023-08-07T10:13:16;100785.88;;;18.34;100.00
3142;BME280;1581;51.568;6.998;2023-08-07T10:15:46;100784.19;;;18.56;100.00
3142;BME280;1581;51.568;6.998;2023-08-07T10:18:15;100784.19;;;18.56;100.00
3142;BME280;1581;51.568;6.998;2023-08-07T10:20:44;100802.47;;;18.54;100.00
3142;BME280;1581;51.568;6.998;2023-08-07T10:23:12;100800.97;;;18.58;100.00
3142;BME280;1581;51.568;6.998;2023-08-07T10:25:44;100799.44;;;18.90;100.00
3142;BME280;1581;51.568;6.998;2023-08-07T10:28:16;100793.84;;;18.80;100.00
3142;BME280;1581;51.568;6.998;2023-08-07T10:30:45;100799.84;;;18.70;100.00
3142;BME280;1581;51.568;6.998;2023-08-07T10:33:15;100797.41;;;18.69;100.00
3142;BME280;1581;51.568;6.998;2023-08-07T10:35:49;100786.22;;;18.77;100.00
3142;BME280;1581;51.568;6.998;2023-08-07T10:38:22;100806.84;;;18.83;100.00
3142;BME280;1581;51.568;6.998;2023-08-07T10:41:00;100811.69;;;19.08;100.00
3142;BME280;1581;51.568;6.998;2023-08-07T10:43:29;100816.00;;;19.21;100.00
3142;BME280;1581;51.568;6.998;2023-08-07T10:46:03;100811.03;;;19.29;100.00
3142;BME280;1581;51.568;6.998;2023-08-07T10:48:40;100810.97;;;19.57;100.00
3142;BME280;1581;51.568;6.998;2023-08-07T10:51:12;100811.78;;;19.74;100.00
3142;BME280;1581;51.568;6.998;2023-08-07T10:53:42;100820.66;;;19.86;100.00
3142;BME280;1581;51.568;6.998;2023-08-07T10:56:16;100829.91;;;19.74;100.00
3142;BME280;1581;51.568;6.998;2023-08-07T10:58:50;100824.34;;;19.64;100.00
3142;BME280;1581;51.568;6.998;2023-08-07T11:01:21;100816.22;;;19.64;100.00
3142;BME280;1581;51.568;6.998;2023-08-07T11:03:51;100822.53;;;19.86;100.00
3142;BME280;1581;51.568;6.998;2023-08-07T11:06:25;100822.88;;;19.89;100.00
3142;BME280;1581;51.568;6.998;2023-08-07T11:08:54;100814.19;;;20.03;100.00
3142;BME280;1581;51.568;6.998;2023-08-07T11:11:21;100818.53;;;20.21;100.00
3142;BME280;1581;51.568;6.998;2023-08-07T11:13:49;100821.50;;;20.41;100.00
3142;BME280;1581;51.568;6.998;2023-08-07T11:16:20;100822.00;;;20.00;100.00
3142;BME280;1581;51.568;6.998;2023-08-07T11:18:49;100838.69;;;20.13;100.00
3142;BME280;1581;51.568;6.998;2023-08-07T11:21:16;100841.66;;;19.95;100.00
3142;BME280;1581;51.568;6.998;2023-08-07T11:23:46;100835.91;;;19.76;100.00
3142;BME280;1581;51.568;6.998;2023-08-07T11:26:14;100831.13;;;19.50;100.00
3142;BME280;1581;51.568;6.998;2023-08-07T11:28:42;100840.13;;;19.55;100.00
3142;BME280;1581;51.568;6.998;2023-08-07T11:31:10;100853.75;;;19.93;100.00
3142;BME280;1581;51.568;6.998;2023-08-07T11:33:38;100854.19;;;20.18;100.00
3142;BME280;1581;51.568;6.998;2023-08-07T11:36:11;100844.91;;;20.14;100.00
3142;BME280;1581;51.568;6.998;2023-08-07T11:38:41;100842.06;;;20.42;100.00
3142;BME280;1581;51.568;6.998;2023-08-07T11:41:15;100838.06;;;20.44;100.00
3142;BME280;1581;51.568;6.998;2023-08-07T11:43:49;100846.78;;;20.68;100.00
3142;BME280;1581;51.568;6.998;2023-08-07T11:46:17;100833.25;;;20.89;100.00
3142;BME280;1581;51.568;6.998;2023-08-07T11:48:48;100838.97;;;21.14;100.00
3142;BME280;1581;51.568;6.998;2023-08-07T11:51:17;100838.78;;;21.20;97.93
3142;BME280;1581;51.568;6.998;2023-08-07T11:53:45;100842.13;;;21.32;98.52
3142;BME280;1581;51.568;6.998;2023-08-07T11:56:14;100848.47;;;21.43;100.00
3142;BME280;1581;51.568;6.998;2023-08-07T11:58:43;100848.78;;;21.46;96.20
3142;BME280;1581;51.568;6.998;2023-08-07T12:01:14;100853.16;;;21.52;96.30
3142;BME280;1581;51.568;6.998;2023-08-07T12:03:52;100857.31;;;21.33;95.00
3142;BME280;1581;51.568;6.998;2023-08-07T12:06:22;100859.50;;;21.58;97.29
3142;BME280;1581;51.568;6.998;2023-08-07T12:08:54;100861.28;;;21.47;93.07
3142;BME280;1581;51.568;6.998;2023-08-07T12:11:24;100858.13;;;21.86;94.89
3142;BME280;1581;51.568;6.998;2023-08-07T12:13:52;100864.00;;;21.73;93.47
3142;BME280;1581;51.568;6.998;2023-08-07T12:16:20;100862.47;;;21.87;93.18
3142;BME280;1581;51.568;6.998;2023-08-07T12:18:50;100870.78;;;22.07;95.76
3142;BME280;1581;51.568;6.998;2023-08-07T12:21:20;100870.25;;;22.10;91.70
3142;BME280;1581;51.568;6.998;2023-08-07T12:23:50;100870.03;;;21.80;91.41
3142;BME280;1581;51.568;6.998;2023-08-07T12:26:18;100867.56;;;21.79;91.22
3142;BME280;1581;51.568;6.998;2023-08-07T12:28:47;100866.41;;;22.01;90.22
3142;BME280;1581;51.568;6.998;2023-08-07T12:31:16;100881.34;;;22.04;92.33
3142;BME280;1581;51.568;6.998;2023-08-07T12:33:44;100882.13;;;21.68;91.17
3142;BME280;1581;51.568;6.998;2023-08-07T12:36:12;100887.16;;;21.86;88.60
3142;BME280;1581;51.568;6.998;2023-08-07T12:38:41;100886.53;;;22.42;85.11
3142;BME280;1581;51.568;6.998;2023-08-07T12:41:08;100881.81;;;21.96;89.53
3142;BME280;1581;51.568;6.998;2023-08-07T12:43:37;100867.66;;;21.89;86.34
3142;BME280;1581;51.568;6.998;2023-08-07T12:46:06;100874.97;;;22.25;90.73
3142;BME280;1581;51.568;6.998;2023-08-07T12:48:34;100868.34;;;22.42;90.24
3142;BME280;1581;51.568;6.998;2023-08-07T12:51:03;100875.97;;;22.96;83.59
3142;BME280;1581;51.568;6.998;2023-08-07T12:53:31;100873.44;;;23.56;71.16
3142;BME280;1581;51.568;6.998;2023-08-07T12:55:59;100894.47;;;25.23;58.17
3142;BME280;1581;51.568;6.998;2023-08-07T12:58:27;100894.47;;;25.23;56.16
3142;BME280;1581;51.568;6.998;2023-08-07T13:00:57;100900.44;;;27.57;48.53
3142;BME280;1581;51.568;6.998;2023-08-07T13:03:26;100906.41;;;27.22;52.15
3142;BME280;1581;51.568;6.998;2023-08-07T13:05:54;100889.78;;;27.37;49.77
3142;BME280;1581;51.568;6.998;2023-08-07T13:08:22;100920.94;;;32.84;36.12
3142;BME280;1581;51.568;6.998;2023-08-07T13:10:50;100910.66;;;33.80;33.48